Time;durP1;ratioP1;P1;durP2;ratioP2;P2;SDS_P1;SDS_P2;PMS_P1;PMS_P2;Temp;Humidity;BMP_temperature;BMP_pressure;BME280_temperature;BME280_humidity;BME280_pressure;Samples;Min_cycle;Max_cycle;Signal;HPM_P1;HPM_P2
2022/12/21 00:01:25;;;;;;;32.40;13.67;;;4.90;99.90;;;;;;4177219;28;20445;-76
2022/12/21 00:03:27;;;;;;;32.27;13.47;;;4.80;99.90;;;;;;4174440;28;20445;-76
2022/12/21 00:05:29;;;;;;;34.30;13.87;;;4.90;99.90;;;;;;4176145;28;20978;-76
2022/12/21 00:07:33;;;;;;;32.83;14.27;;;5.00;99.90;;;;;;4177611;28;20900;-77
2022/12/21 00:09:35;;;;;;;33.53;13.97;;;4.90;99.90;;;;;;4179308;28;20460;-76
2022/12/21 00:11:38;;;;;;;35.00;14.77;;;4.90;99.90;;;;;;4185604;28;20445;-76
2022/12/21 00:13:41;;;;;;;36.90;14.57;;;4.90;99.90;;;;;;4171806;28;20493;-76
2022/12/21 00:15:44;;;;;;;34.70;15.23;;;4.90;99.90;;;;;;4174685;28;20499;-76
2022/12/21 00:17:46;;;;;;;36.73;14.87;;;4.80;99.90;;;;;;4188603;28;20506;-76
2022/12/21 00:19:48;;;;;;;34.40;14.50;;;4.80;99.90;;;;;;4172255;28;20450;-76
2022/12/21 00:21:50;;;;;;;36.67;14.47;;;4.80;99.90;;;;;;4179819;28;20963;-76
2022/12/21 00:23:54;;;;;;;37.17;15.03;;;4.80;99.90;;;;;;4172023;28;20884;-76
2022/12/21 00:25:56;;;;;;;37.17;15.37;;;4.70;99.90;;;;;;4171173;28;20449;-76
2022/12/21 00:27:59;;;;;;;37.27;14.40;;;4.80;99.90;;;;;;4173581;28;20906;-76
2022/12/21 00:30:01;;;;;;;41.73;15.07;;;4.70;99.90;;;;;;4171411;28;20461;-76
2022/12/21 00:32:03;;;;;;;35.53;14.17;;;4.70;99.90;;;;;;4173697;28;20989;-76
2022/12/21 00:34:05;;;;;;;35.63;13.97;;;4.70;99.90;;;;;;4174961;28;20457;-76
2022/12/21 00:36:10;;;;;;;36.07;14.40;;;4.70;99.90;;;;;;4177891;28;20539;-76
2022/12/21 00:38:12;;;;;;;33.40;14.47;;;4.70;99.90;;;;;;4163804;28;21067;-77
2022/12/21 00:40:14;;;;;;;35.33;14.00;;;4.70;99.90;;;;;;4174889;28;20462;-76
2022/12/21 00:42:16;;;;;;;36.60;14.73;;;4.70;99.90;;;;;;4155996;28;20552;-76
2022/12/21 00:44:22;;;;;;;40.87;15.77;;;4.70;99.90;;;;;;4159367;28;20453;-76
2022/12/21 00:46:26;;;;;;;33.40;14.00;;;4.70;99.90;;;;;;4173081;28;20449;-76
2022/12/21 00:48:29;;;;;;;36.40;15.30;;;4.70;99.90;;;;;;4179838;28;20483;-76
2022/12/21 00:50:33;;;;;;;35.90;14.50;;;4.70;99.90;;;;;;4166448;28;21324;-76
2022/12/21 00:52:34;;;;;;;33.33;13.87;;;4.70;99.90;;;;;;4177104;28;20548;-76
2022/12/21 00:54:36;;;;;;;34.80;13.87;;;4.70;99.90;;;;;;4179338;28;20511;-76
2022/12/21 00:56:38;;;;;;;34.07;14.50;;;4.70;99.90;;;;;;4174709;28;20994;-76
2022/12/21 00:58:41;;;;;;;34.43;14.47;;;4.70;99.90;;;;;;4162400;28;20463;-76
2022/12/21 01:00:47;;;;;;;36.87;14.93;;;4.70;99.90;;;;;;4178173;28;20489;-76
2022/12/21 01:02:49;;;;;;;34.13;13.40;;;4.70;99.90;;;;;;4172561;28;20501;-76
2022/12/21 01:04:50;;;;;;;35.43;15.03;;;4.70;99.90;;;;;;4176852;28;20484;-76
2022/12/21 01:06:52;;;;;;;33.10;14.30;;;4.70;99.90;;;;;;4168761;28;20546;-76
2022/12/21 01:08:55;;;;;;;35.13;14.60;;;4.70;99.90;;;;;;4173530;28;21254;-76
2022/12/21 01:10:58;;;;;;;30.27;12.87;;;4.70;99.90;;;;;;4176665;28;20496;-76
2022/12/21 01:13:00;;;;;;;36.13;14.97;;;4.80;99.90;;;;;;4174651;28;20495;-76
2022/12/21 01:15:02;;;;;;;32.43;14.90;;;4.80;99.90;;;;;;4172188;28;20485;-76
2022/12/21 01:17:05;;;;;;;32.57;13.37;;;4.70;99.90;;;;;;4176397;28;20544;-76
2022/12/21 01:19:07;;;;;;;31.20;13.70;;;4.70;99.90;;;;;;4161584;28;20488;-76
2022/12/21 01:21:18;;;;;;;32.50;13.77;;;4.70;99.90;;;;;;4177269;28;20466;-76
2022/12/21 01:23:20;;;;;;;32.43;13.20;;;4.80;99.90;;;;;;4158931;28;20826;-76
2022/12/21 01:25:22;;;;;;;31.30;13.40;;;4.70;99.90;;;;;;4169097;28;20544;-76
2022/12/21 01:27:24;;;;;;;33.83;14.00;;;4.80;99.90;;;;;;4176804;28;20592;-76
2022/12/21 01:29:26;;;;;;;35.23;13.67;;;4.80;99.90;;;;;;4167685;28;20551;-76
2022/12/21 01:31:28;;;;;;;32.63;13.40;;;4.80;99.90;;;;;;4153008;28;20877;-76
2022/12/21 01:33:31;;;;;;;31.17;13.47;;;4.80;99.90;;;;;;4175626;28;20493;-76
2022/12/21 01:35:33;;;;;;;32.67;13.43;;;4.80;99.90;;;;;;4175933;28;20982;-76
2022/12/21 01:37:35;;;;;;;30.53;13.33;;;4.80;99.90;;;;;;4171412;28;20513;-76
2022/12/21 01:39:37;;;;;;;30.27;13.50;;;4.80;99.90;;;;;;4171140;28;20572;-76
2022/12/21 01:41:39;;;;;;;28.13;12.97;;;4.80;99.90;;;;;;4176426;28;20548;-76
2022/12/21 01:43:45;;;;;;;32.97;12.80;;;4.80;99.90;;;;;;4173210;28;20553;-76
2022/12/21 01:45:51;;;;;;;32.47;13.40;;;4.90;99.90;;;;;;4172406;28;20553;-76
2022/12/21 01:47:57;;;;;;;32.30;13.40;;;4.80;99.90;;;;;;4171120;28;20585;-76
2022/12/21 01:50:05;;;;;;;30.53;13.23;;;4.90;99.90;;;;;;4179892;28;20462;-76
2022/12/21 01:52:11;;;;;;;31.77;14.00;;;4.90;99.90;;;;;;4176586;28;20808;-76
2022/12/21 01:54:16;;;;;;;32.10;13.20;;;4.90;99.90;;;;;;4172824;28;20460;-76
2022/12/21 01:56:23;;;;;;;32.47;13.80;;;4.90;99.90;;;;;;4173814;28;20497;-76
2022/12/21 01:58:27;;;;;;;32.40;13.93;;;4.90;99.90;;;;;;4180725;28;20457;-77
2022/12/21 02:00:29;;;;;;;35.03;13.93;;;4.90;99.90;;;;;;4173929;28;20512;-76
2022/12/21 02:02:36;;;;;;;31.57;13.43;;;4.90;99.90;;;;;;4182302;28;21030;-76
2022/12/21 02:04:38;;;;;;;32.70;13.60;;;4.80;99.90;;;;;;4171024;28;20899;-76
2022/12/21 02:06:46;;;;;;;34.13;13.90;;;4.90;99.90;;;;;;4164707;28;20592;-76
2022/12/21 02:08:49;;;;;;;34.73;14.87;;;4.80;99.90;;;;;;4169567;28;20519;-76
2022/12/21 02:10:52;;;;;;;34.20;14.43;;;4.90;99.90;;;;;;4174471;28;20500;-77
2022/12/21 02:13:02;;;;;;;32.77;13.73;;;4.80;99.90;;;;;;4173844;28;20933;-76
2022/12/21 02:15:05;;;;;;;33.80;13.87;;;4.80;99.90;;;;;;4182151;28;20468;-76
2022/12/21 02:17:11;;;;;;;33.43;13.60;;;4.90;99.90;;;;;;4171504;28;20564;-77
2022/12/21 02:19:54;;;;;;;35.17;14.43;;;4.70;99.90;;;;;;4166858;28;20458;-76
2022/12/21 02:22:01;;;;;;;31.73;12.80;;;4.80;99.90;;;;;;4121816;28;20492;-77
2022/12/21 02:24:53;;;;;;;35.10;13.43;;;4.80;99.90;;;;;;4145380;28;20553;-77
2022/12/21 02:27:20;;;;;;;29.83;12.40;;;4.80;99.90;;;;;;4173566;28;20477;-76
2022/12/21 02:29:58;;;;;;;31.63;13.57;;;4.90;99.90;;;;;;4173763;28;20560;-76
2022/12/21 02:32:09;;;;;;;30.87;13.20;;;4.80;99.90;;;;;;4164164;28;20477;-76
2022/12/21 02:34:16;;;;;;;33.67;13.77;;;4.90;99.90;;;;;;4173265;28;20970;-76
2022/12/21 02:36:29;;;;;;;31.93;13.60;;;4.90;99.90;;;;;;4175627;28;20475;-76
2022/12/21 02:38:47;;;;;;;37.13;14.93;;;4.90;99.90;;;;;;4170056;28;20494;-76
2022/12/21 02:41:00;;;;;;;36.00;14.23;;;4.90;99.90;;;;;;4171663;28;20469;-76
2022/12/21 02:45:43;;;;;;;32.07;13.73;;;4.90;99.90;;;;;;4181716;28;20446;-76
2022/12/21 02:47:53;;;;;;;33.80;13.87;;;4.90;99.90;;;;;;4176316;28;20486;-76
2022/12/21 02:49:59;;;;;;;33.03;13.90;;;4.90;99.90;;;;;;4174040;28;20465;-76
2022/12/21 02:52:07;;;;;;;35.93;14.50;;;4.90;99.90;;;;;;4173798;28;20481;-76
2022/12/21 02:54:14;;;;;;;37.77;14.93;;;5.00;99.90;;;;;;4175271;28;20462;-76
2022/12/21 02:56:17;;;;;;;37.00;14.20;;;5.00;99.90;;;;;;4175204;28;20466;-76
2022/12/21 02:58:21;;;;;;;37.33;14.33;;;5.00;99.90;;;;;;4171517;28;20660;-76
2022/12/21 03:00:23;;;;;;;34.03;14.10;;;5.00;99.90;;;;;;4170547;28;20454;-76
2022/12/21 03:05:27;;;;;;;33.10;14.53;;;5.00;99.90;;;;;;4174466;28;20642;-76
2022/12/21 03:07:43;;;;;;;31.23;14.40;;;5.00;99.90;;;;;;4176048;28;20491;-76
2022/12/21 03:09:56;;;;;;;32.00;14.27;;;5.00;99.90;;;;;;4170509;28;20534;-76
2022/12/21 03:12:03;;;;;;;32.33;14.97;;;5.10;99.90;;;;;;4181323;28;20468;-76
2022/12/21 03:14:10;;;;;;;33.97;14.23;;;5.00;99.90;;;;;;4175041;28;20582;-76
2022/12/21 03:16:17;;;;;;;33.23;14.00;;;5.10;99.90;;;;;;4176909;28;20441;-77
2022/12/21 03:18:27;;;;;;;33.23;14.43;;;5.00;99.90;;;;;;4173568;28;20533;-76
2022/12/21 03:20:37;;;;;;;33.07;14.20;;;5.10;99.90;;;;;;4175245;28;20530;-76
2022/12/21 03:22:43;;;;;;;31.37;14.10;;;5.10;99.90;;;;;;4158774;28;20986;-76
2022/12/21 03:24:51;;;;;;;30.77;14.07;;;5.10;99.90;;;;;;4155819;28;20486;-76
2022/12/21 03:26:57;;;;;;;30.83;14.97;;;5.10;99.90;;;;;;4172942;28;20540;-76
2022/12/21 03:29:00;;;;;;;30.67;13.33;;;5.10;99.90;;;;;;4173525;28;20481;-76
2022/12/21 03:31:05;;;;;;;33.50;14.53;;;5.10;99.90;;;;;;4172311;28;20556;-76
2022/12/21 03:33:10;;;;;;;34.57;14.27;;;5.10;99.90;;;;;;4156431;28;21024;-76
2022/12/21 03:35:21;;;;;;;32.10;14.57;;;5.10;99.90;;;;;;4183935;28;20483;-76
2022/12/21 03:37:27;;;;;;;32.53;14.33;;;5.10;99.90;;;;;;4176305;28;20479;-76
2022/12/21 03:39:31;;;;;;;34.13;14.77;;;5.10;99.90;;;;;;4174407;28;20508;-76
2022/12/21 03:41:39;;;;;;;38.63;15.10;;;5.10;99.90;;;;;;4172946;28;20529;-76
2022/12/21 03:43:43;;;;;;;35.83;14.20;;;5.10;99.90;;;;;;4154530;28;20474;-77
2022/12/21 03:45:51;;;;;;;35.40;15.00;;;5.10;99.90;;;;;;4161842;28;20988;-77
2022/12/21 03:47:59;;;;;;;36.43;14.43;;;5.10;99.90;;;;;;4176833;28;20579;-77
2022/12/21 03:50:04;;;;;;;39.87;15.43;;;5.20;99.90;;;;;;4159993;28;20454;-77
2022/12/21 03:52:11;;;;;;;32.37;14.63;;;5.10;99.90;;;;;;4177625;28;20981;-77
2022/12/21 03:54:18;;;;;;;34.37;14.30;;;5.20;99.90;;;;;;4169546;28;21021;-77
2022/12/21 03:56:24;;;;;;;33.93;13.83;;;5.20;99.90;;;;;;4178971;28;20924;-77
2022/12/21 03:58:28;;;;;;;29.93;14.00;;;5.10;99.90;;;;;;4177063;28;20963;-77
2022/12/21 04:00:38;;;;;;;31.77;14.43;;;5.20;99.90;;;;;;4171299;28;20454;-77
2022/12/21 04:02:46;;;;;;;32.27;15.27;;;5.20;99.90;;;;;;4177219;28;20459;-77
2022/12/21 04:04:53;;;;;;;36.73;15.60;;;5.20;99.90;;;;;;4176695;28;20497;-76
2022/12/21 04:06:59;;;;;;;35.43;14.70;;;5.20;99.90;;;;;;4186459;28;20560;-77
2022/12/21 04:09:03;;;;;;;34.43;14.70;;;5.20;99.90;;;;;;4169993;28;20589;-77
2022/12/21 04:11:06;;;;;;;35.33;15.13;;;5.20;99.90;;;;;;4172671;28;20522;-77
2022/12/21 04:13:06;;;;;;;35.60;15.13;;;5.20;99.90;;;;;;4181388;28;20473;-77
2022/12/21 04:15:14;;;;;;;33.97;15.03;;;5.20;99.90;;;;;;4174726;28;20451;-77
2022/12/21 04:17:16;;;;;;;35.03;15.40;;;5.20;99.90;;;;;;4179778;28;20305;-77
2022/12/21 04:21:37;;;;;;;32.73;14.30;;;5.30;99.90;;;;;;4172233;28;20508;-77
2022/12/21 04:28:22;;;;;;;38.50;16.37;;;5.40;99.90;;;;;;4168469;28;20494;-76
2022/12/21 04:30:24;;;;;;;38.60;16.60;;;5.40;99.90;;;;;;4172090;28;20476;-77
2022/12/21 04:32:26;;;;;;;36.93;14.77;;;5.30;99.90;;;;;;4173270;28;20897;-77
2022/12/21 04:34:27;;;;;;;35.47;14.83;;;5.40;99.90;;;;;;4170472;28;20534;-77
2022/12/21 04:38:49;;;;;;;31.73;13.50;;;5.40;99.90;;;;;;4177913;28;20442;-76
2022/12/21 04:40:52;;;;;;;34.53;14.47;;;5.40;99.90;;;;;;4179373;28;20541;-77
2022/12/21 04:42:55;;;;;;;35.23;15.17;;;5.70;99.90;;;;;;4174240;28;20924;-77
2022/12/21 04:44:58;;;;;;;31.13;15.30;;;5.50;99.90;;;;;;4174624;28;21070;-77
2022/12/21 04:47:00;;;;;;;32.47;14.77;;;5.50;99.90;;;;;;4172848;28;20469;-76
2022/12/21 04:49:02;;;;;;;32.27;14.27;;;5.50;99.90;;;;;;4180352;28;20525;-76
2022/12/21 04:51:05;;;;;;;34.30;15.60;;;5.50;99.90;;;;;;4173069;28;20451;-77
2022/12/21 04:53:07;;;;;;;32.10;13.97;;;5.50;99.90;;;;;;4174091;28;20457;-77
2022/12/21 04:55:09;;;;;;;38.63;15.03;;;5.50;99.90;;;;;;4160621;28;20498;-76
2022/12/21 04:57:11;;;;;;;32.53;15.17;;;5.50;99.90;;;;;;4180251;28;20462;-77
2022/12/21 04:59:15;;;;;;;34.43;14.17;;;5.50;99.90;;;;;;4168825;28;20448;-77
2022/12/21 05:01:19;;;;;;;34.47;14.67;;;5.60;99.90;;;;;;4172881;28;20486;-77
2022/12/21 05:03:21;;;;;;;36.47;14.70;;;5.60;99.90;;;;;;4176521;28;20457;-77
2022/12/21 05:05:23;;;;;;;34.07;15.13;;;5.60;99.90;;;;;;4175161;28;21055;-77
2022/12/21 05:07:25;;;;;;;35.80;16.87;;;5.60;99.90;;;;;;4176287;28;21043;-78
2022/12/21 05:09:27;;;;;;;36.00;15.30;;;5.60;99.90;;;;;;4176396;28;20823;-77
2022/12/21 05:11:28;;;;;;;34.17;15.37;;;5.60;99.90;;;;;;4154581;28;20996;-77
2022/12/21 05:13:31;;;;;;;32.67;14.83;;;5.60;99.90;;;;;;4184479;28;20880;-77
2022/12/21 05:15:37;;;;;;;32.17;14.73;;;5.60;99.90;;;;;;4179022;28;20489;-77
2022/12/21 05:17:39;;;;;;;35.40;14.77;;;5.60;99.90;;;;;;4168628;28;20507;-77
2022/12/21 05:19:41;;;;;;;29.37;14.23;;;5.60;99.90;;;;;;4170740;28;20813;-77
2022/12/21 05:21:43;;;;;;;34.13;15.40;;;5.70;99.90;;;;;;4174683;28;20879;-77
2022/12/21 05:23:45;;;;;;;35.27;14.80;;;5.70;99.90;;;;;;4157616;28;21142;-77
2022/12/21 05:25:47;;;;;;;32.70;14.40;;;5.70;99.90;;;;;;4170594;28;20901;-77
2022/12/21 05:27:49;;;;;;;36.40;17.07;;;5.80;99.90;;;;;;4157352;28;20847;-77
2022/12/21 05:29:51;;;;;;;42.17;17.60;;;5.80;99.90;;;;;;4173085;28;20938;-77
2022/12/21 05:31:54;;;;;;;35.77;16.63;;;5.80;99.90;;;;;;4173358;28;20569;-77
2022/12/21 05:33:56;;;;;;;31.33;14.33;;;5.80;99.90;;;;;;4171037;28;20547;-77
2022/12/21 05:36:01;;;;;;;31.20;14.93;;;5.80;99.90;;;;;;4179807;28;20615;-77
2022/12/21 05:38:03;;;;;;;30.90;14.23;;;5.80;99.90;;;;;;4168406;28;20501;-77
2022/12/21 05:40:06;;;;;;;31.50;14.80;;;5.90;99.90;;;;;;4153216;28;20457;-77
2022/12/21 05:42:09;;;;;;;29.23;14.03;;;5.80;99.90;;;;;;4178201;28;20839;-77
2022/12/21 05:44:11;;;;;;;30.77;13.80;;;5.80;99.90;;;;;;4178858;28;20524;-77
2022/12/21 05:46:13;;;;;;;28.20;13.43;;;5.90;99.90;;;;;;4178191;28;20479;-77
2022/12/21 05:48:17;;;;;;;37.20;14.43;;;5.90;99.90;;;;;;4175719;28;21021;-77
2022/12/21 05:50:19;;;;;;;35.03;15.67;;;5.90;99.90;;;;;;4174754;28;20547;-77
2022/12/21 05:52:21;;;;;;;32.10;14.53;;;5.90;99.90;;;;;;4171793;28;20498;-77
2022/12/21 05:54:23;;;;;;;33.53;15.37;;;5.90;99.90;;;;;;4179473;28;20455;-77
2022/12/21 05:56:24;;;;;;;33.40;14.83;;;6.00;99.90;;;;;;4176519;28;20971;-77
2022/12/21 05:58:26;;;;;;;35.67;14.73;;;6.00;99.90;;;;;;4157269;28;20992;-77
2022/12/21 06:00:28;;;;;;;36.93;15.60;;;6.00;99.90;;;;;;4174157;28;20525;-77
2022/12/21 06:02:30;;;;;;;33.13;14.63;;;6.00;99.90;;;;;;4178095;28;20457;-77
2022/12/21 06:04:34;;;;;;;32.07;14.90;;;6.00;99.90;;;;;;4167560;28;20542;-77
2022/12/21 06:06:35;;;;;;;29.23;13.70;;;6.10;99.90;;;;;;4172312;28;20499;-77
2022/12/21 06:08:38;;;;;;;41.43;15.40;;;6.10;99.90;;;;;;4177993;28;20511;-77
2022/12/21 06:10:40;;;;;;;32.87;14.37;;;6.10;99.90;;;;;;4168602;28;20822;-77
2022/12/21 06:12:41;;;;;;;28.57;14.00;;;6.10;99.90;;;;;;4172321;28;20460;-77
2022/12/21 06:14:44;;;;;;;32.73;14.60;;;6.10;99.90;;;;;;4178198;28;20489;-77
2022/12/21 06:16:46;;;;;;;30.93;13.67;;;6.10;99.90;;;;;;4171228;28;20988;-77
2022/12/21 06:18:48;;;;;;;30.10;13.17;;;6.10;99.90;;;;;;4173154;28;20544;-77
2022/12/21 06:20:55;;;;;;;29.43;13.97;;;6.10;99.90;;;;;;4174638;28;20456;-78
2022/12/21 06:22:57;;;;;;;30.27;14.33;;;6.10;99.90;;;;;;4171665;28;20504;-78
2022/12/21 06:24:59;;;;;;;31.90;14.70;;;6.10;99.90;;;;;;4170525;28;20446;-78
2022/12/21 06:27:01;;;;;;;28.97;13.27;;;6.10;99.90;;;;;;4170836;28;20534;-78
2022/12/21 06:29:03;;;;;;;32.70;14.50;;;6.10;99.90;;;;;;4174795;28;20519;-80
2022/12/21 06:31:08;;;;;;;31.30;14.40;;;6.10;99.90;;;;;;4170654;28;20717;-78
2022/12/21 06:33:12;;;;;;;35.47;14.33;;;6.20;99.90;;;;;;4172333;28;20578;-78
2022/12/21 06:35:14;;;;;;;27.20;13.27;;;6.20;99.90;;;;;;4175452;28;20492;-78
2022/12/21 06:37:17;;;;;;;29.07;14.17;;;6.20;99.90;;;;;;4147221;28;20480;-78
2022/12/21 06:39:19;;;;;;;30.13;13.73;;;6.20;99.90;;;;;;4171138;28;20521;-78
2022/12/21 06:41:23;;;;;;;32.83;13.83;;;6.20;99.90;;;;;;4165684;28;20543;-78
2022/12/21 06:43:26;;;;;;;27.13;13.63;;;6.20;99.90;;;;;;4173181;28;20451;-77
2022/12/21 06:45:27;;;;;;;28.83;13.80;;;6.20;99.90;;;;;;4165786;28;20472;-78
2022/12/21 06:47:29;;;;;;;30.67;14.03;;;6.20;99.90;;;;;;4165178;28;21214;-77
2022/12/21 06:49:31;;;;;;;29.73;14.07;;;6.20;99.90;;;;;;4167316;28;20483;-77
2022/12/21 06:51:33;;;;;;;27.90;13.93;;;6.30;99.90;;;;;;4152821;28;20886;-78
2022/12/21 06:53:38;;;;;;;30.47;14.30;;;6.30;99.90;;;;;;4173516;28;20488;-78
2022/12/21 06:55:39;;;;;;;26.63;13.90;;;6.30;99.90;;;;;;4172074;28;20513;-78
2022/12/21 06:57:41;;;;;;;29.80;13.07;;;6.30;99.90;;;;;;4170203;28;20491;-81
2022/12/21 06:59:43;;;;;;;29.00;13.10;;;6.40;99.90;;;;;;4173246;28;20508;-78
2022/12/21 07:01:45;;;;;;;27.43;13.47;;;6.30;99.90;;;;;;4171917;28;20449;-78
2022/12/21 07:03:48;;;;;;;29.87;13.73;;;6.40;99.90;;;;;;4170740;28;20550;-78
2022/12/21 07:05:50;;;;;;;33.00;14.60;;;6.40;99.90;;;;;;4169464;28;20464;-77
2022/12/21 07:07:52;;;;;;;31.57;14.73;;;6.40;99.90;;;;;;4152147;28;20476;-77
2022/12/21 07:09:55;;;;;;;28.00;14.10;;;6.40;99.90;;;;;;4152122;28;20556;-78
2022/12/21 07:11:57;;;;;;;29.60;13.93;;;6.40;99.90;;;;;;4172553;28;20488;-78
2022/12/21 07:14:00;;;;;;;30.93;14.13;;;6.50;99.90;;;;;;4152175;28;21045;-79
2022/12/21 07:16:02;;;;;;;29.47;13.97;;;6.50;99.90;;;;;;4170970;28;20605;-78
2022/12/21 07:18:04;;;;;;;27.83;13.33;;;6.50;99.90;;;;;;4171272;28;21634;-78
2022/12/21 07:20:07;;;;;;;33.83;14.97;;;6.50;99.90;;;;;;4168791;28;20448;-78
2022/12/21 07:22:10;;;;;;;26.00;12.73;;;6.50;99.90;;;;;;4173988;28;20552;-79
2022/12/21 07:24:12;;;;;;;30.27;13.27;;;6.50;99.90;;;;;;4174486;28;20631;-78
2022/12/21 07:26:17;;;;;;;27.50;13.10;;;6.50;99.90;;;;;;4170721;28;20539;-79
2022/12/21 07:28:19;;;;;;;29.73;13.60;;;6.50;99.90;;;;;;4172936;28;20465;-80
2022/12/21 07:30:22;;;;;;;32.23;13.87;;;6.50;99.90;;;;;;4163403;28;20508;-78
2022/12/21 07:32:24;;;;;;;26.40;12.97;;;6.60;99.90;;;;;;4180263;28;20466;-77
2022/12/21 07:34:26;;;;;;;26.97;13.10;;;6.60;99.90;;;;;;4170220;28;20495;-78
2022/12/21 07:36:28;;;;;;;27.40;12.27;;;6.60;99.90;;;;;;4181590;28;20452;-78
2022/12/21 07:38:31;;;;;;;30.13;13.33;;;6.60;99.90;;;;;;4166263;28;20475;-79
2022/12/21 07:40:33;;;;;;;28.20;12.80;;;6.60;99.90;;;;;;4168899;28;20445;-79
2022/12/21 07:42:37;;;;;;;28.63;12.27;;;6.80;99.90;;;;;;4169929;28;20945;-79
2022/12/21 07:44:39;;;;;;;25.13;12.00;;;6.60;99.90;;;;;;4178504;28;20827;-77
2022/12/21 07:46:41;;;;;;;25.60;12.20;;;6.60;99.90;;;;;;4174716;28;20476;-79
2022/12/21 07:48:43;;;;;;;23.93;12.17;;;6.60;99.90;;;;;;4175026;28;20532;-79
2022/12/21 07:50:47;;;;;;;22.93;11.37;;;6.60;99.90;;;;;;4171387;28;20535;-80
2022/12/21 07:52:49;;;;;;;24.70;12.20;;;6.60;99.90;;;;;;4174178;28;20471;-79
2022/12/21 07:54:53;;;;;;;24.00;11.73;;;6.60;99.90;;;;;;4153676;28;20453;-77
2022/12/21 07:56:56;;;;;;;28.30;12.73;;;6.60;99.90;;;;;;4180188;28;20507;-79
2022/12/21 07:59:01;;;;;;;28.50;11.87;;;6.60;99.90;;;;;;4164586;28;20496;-79
2022/12/21 08:01:09;;;;;;;24.40;11.83;;;6.60;99.90;;;;;;4169139;28;20498;-79
2022/12/21 08:03:11;;;;;;;25.43;11.67;;;6.60;99.90;;;;;;4171749;28;20530;-78
2022/12/21 08:05:13;;;;;;;21.23;11.07;;;6.70;99.90;;;;;;4175572;28;20553;-79
2022/12/21 08:07:15;;;;;;;32.10;12.13;;;6.70;99.90;;;;;;4161732;28;20477;-79
2022/12/21 08:09:17;;;;;;;25.63;11.70;;;6.70;99.90;;;;;;4153289;28;20502;-79
2022/12/21 08:11:20;;;;;;;23.93;10.87;;;6.70;99.90;;;;;;4167910;28;20869;-79
2022/12/21 08:13:22;;;;;;;21.67;10.87;;;6.70;99.90;;;;;;4154856;28;20545;-79
2022/12/21 08:15:25;;;;;;;23.67;10.63;;;6.70;99.90;;;;;;4162771;28;20488;-79
2022/12/21 08:17:27;;;;;;;19.27;9.93;;;6.80;99.90;;;;;;4175429;28;20516;-79
2022/12/21 08:19:29;;;;;;;23.33;10.77;;;6.80;99.90;;;;;;4170795;28;20492;-78
2022/12/21 08:21:31;;;;;;;22.33;10.50;;;6.80;99.90;;;;;;4165304;28;20456;-78
2022/12/21 08:23:33;;;;;;;21.50;9.93;;;6.80;99.90;;;;;;4174767;28;20474;-79
2022/12/21 08:25:35;;;;;;;23.37;10.77;;;6.80;99.90;;;;;;4174756;28;20471;-78
2022/12/21 08:27:37;;;;;;;22.10;9.40;;;6.80;99.90;;;;;;4174459;28;20480;-78
2022/12/21 08:29:39;;;;;;;18.30;9.60;;;6.80;99.90;;;;;;4174373;28;20488;-78
2022/12/21 08:31:42;;;;;;;21.70;9.47;;;6.80;99.90;;;;;;4155850;28;20515;-79
2022/12/21 08:33:45;;;;;;;21.47;9.80;;;6.80;99.90;;;;;;4178734;28;20939;-78
2022/12/21 08:35:47;;;;;;;22.37;9.47;;;6.80;99.90;;;;;;4177610;28;20964;-77
2022/12/21 08:37:49;;;;;;;20.07;10.27;;;6.90;99.90;;;;;;4179522;28;20543;-78
2022/12/21 08:39:51;;;;;;;18.13;8.77;;;6.90;99.90;;;;;;4177289;28;20456;-78
2022/12/21 08:41:53;;;;;;;16.20;8.57;;;6.90;99.90;;;;;;4176432;28;21125;-77
2022/12/21 08:43:57;;;;;;;16.20;8.87;;;6.90;99.90;;;;;;4156746;28;20462;-77
2022/12/21 08:46:02;;;;;;;18.30;9.13;;;7.00;99.90;;;;;;4174759;28;20494;-79
2022/12/21 08:48:06;;;;;;;16.10;8.70;;;6.90;99.90;;;;;;4178575;28;20475;-79
2022/12/21 08:50:08;;;;;;;18.03;8.03;;;7.00;99.90;;;;;;4160078;28;20473;-78
2022/12/21 08:52:10;;;;;;;16.07;8.00;;;7.00;99.90;;;;;;4175067;28;20471;-78
2022/12/21 08:54:15;;;;;;;16.57;8.20;;;7.00;99.90;;;;;;4171275;28;20457;-78
2022/12/21 08:56:17;;;;;;;15.13;7.63;;;7.00;99.90;;;;;;4168454;28;20459;-77
2022/12/21 08:58:19;;;;;;;14.17;7.53;;;7.00;99.90;;;;;;4165810;28;21019;-78
2022/12/21 09:00:21;;;;;;;14.87;7.40;;;7.00;99.90;;;;;;4156933;28;20481;-79
2022/12/21 09:02:23;;;;;;;14.87;8.00;;;7.00;99.90;;;;;;4169552;28;20462;-77
2022/12/21 09:04:26;;;;;;;13.30;7.13;;;7.10;99.90;;;;;;4170344;28;20539;-77
2022/12/21 09:06:28;;;;;;;15.57;7.43;;;7.10;99.90;;;;;;4169873;28;20492;-79
2022/12/21 09:08:31;;;;;;;14.30;7.53;;;7.20;99.90;;;;;;4171154;28;20550;-78
2022/12/21 09:10:33;;;;;;;12.60;7.17;;;7.20;99.90;;;;;;4174318;28;20507;-78
2022/12/21 09:12:35;;;;;;;13.53;7.83;;;7.20;99.90;;;;;;4167488;28;20484;-78
2022/12/21 09:14:37;;;;;;;11.23;6.80;;;7.20;99.90;;;;;;4172307;28;20484;-79
2022/12/21 09:16:40;;;;;;;12.93;7.17;;;7.30;99.90;;;;;;4168398;28;20494;-78
2022/12/21 09:18:43;;;;;;;12.03;6.10;;;7.30;99.90;;;;;;4170862;28;20929;-77
2022/12/21 09:20:46;;;;;;;11.67;6.47;;;7.30;99.90;;;;;;4170955;28;20450;-79
2022/12/21 09:22:48;;;;;;;12.53;6.27;;;7.40;99.90;;;;;;4165169;28;20489;-78
2022/12/21 09:24:50;;;;;;;10.53;6.23;;;7.40;99.90;;;;;;4176194;28;21139;-79
2022/12/21 09:26:52;;;;;;;13.83;6.80;;;7.40;99.90;;;;;;4155548;28;20481;-77
2022/12/21 09:28:55;;;;;;;11.07;6.00;;;7.50;99.90;;;;;;4170409;28;20850;-78
2022/12/21 09:30:57;;;;;;;10.80;5.83;;;7.50;99.90;;;;;;4152526;28;20477;-78
2022/12/21 09:32:59;;;;;;;12.50;6.07;;;7.50;99.90;;;;;;4171457;28;20547;-78
2022/12/21 09:35:06;;;;;;;13.30;6.73;;;7.50;99.90;;;;;;4152471;28;20541;-77
2022/12/21 09:37:09;;;;;;;11.47;6.67;;;7.50;99.90;;;;;;4171753;28;20543;-77
2022/12/21 09:39:11;;;;;;;12.83;5.60;;;7.60;99.90;;;;;;4175085;28;20450;-78
2022/12/21 09:41:30;;;;;;;10.17;6.23;;;7.60;99.90;;;;;;4149121;28;20593;-78
2022/12/21 09:43:42;;;;;;;9.20;5.50;;;7.60;99.90;;;;;;4169898;28;20540;-78
2022/12/21 09:45:52;;;;;;;10.03;5.50;;;7.70;99.90;;;;;;4172407;28;20495;-78
2022/12/21 09:47:58;;;;;;;9.50;5.30;;;7.70;99.90;;;;;;4173009;28;20484;-80
2022/12/21 09:50:02;;;;;;;12.03;5.80;;;7.80;99.90;;;;;;4165717;28;20500;-78
2022/12/21 09:52:15;;;;;;;11.80;5.83;;;7.80;99.90;;;;;;4152070;28;20783;-78
2022/12/21 09:54:21;;;;;;;11.93;5.60;;;7.80;99.90;;;;;;4153804;28;20459;-77
2022/12/21 09:56:25;;;;;;;14.50;6.47;;;7.90;99.90;;;;;;4179089;28;20452;-78
2022/12/21 09:58:38;;;;;;;10.77;5.97;;;7.90;99.90;;;;;;4155079;28;20972;-78
2022/12/21 10:00:45;;;;;;;10.63;5.90;;;8.00;99.90;;;;;;4156076;28;20461;-78
2022/12/21 10:03:24;;;;;;;11.70;5.60;;;8.00;99.90;;;;;;4173280;28;20456;-78
2022/12/21 10:05:43;;;;;;;10.50;5.60;;;8.00;99.90;;;;;;4150549;28;20477;-78
2022/12/21 10:08:17;;;;;;;10.53;5.90;;;8.00;99.90;;;;;;4170230;28;21043;-78
2022/12/21 10:10:24;;;;;;;10.23;5.97;;;8.10;99.90;;;;;;4170927;28;20499;-79
2022/12/21 10:12:32;;;;;;;9.63;5.60;;;8.10;99.90;;;;;;4167706;28;20453;-77
2022/12/21 10:14:45;;;;;;;8.23;4.87;;;8.20;99.90;;;;;;4171690;28;20452;-78
2022/12/21 10:16:52;;;;;;;8.17;5.37;;;8.20;99.90;;;;;;4166599;28;20538;-78
2022/12/21 10:19:03;;;;;;;7.57;4.93;;;8.30;99.90;;;;;;4174537;28;20990;-78
2022/12/21 10:21:13;;;;;;;8.10;4.90;;;8.30;99.90;;;;;;4169296;28;20436;-78
2022/12/21 10:23:22;;;;;;;9.17;5.13;;;8.30;99.90;;;;;;4168364;28;21322;-78
2022/12/21 10:25:29;;;;;;;8.47;5.10;;;8.40;99.90;;;;;;4153963;28;20673;-77
2022/12/21 10:27:37;;;;;;;9.87;5.00;;;8.40;99.90;;;;;;4167996;28;20218;-78
2022/12/21 10:29:45;;;;;;;7.30;4.43;;;8.40;99.90;;;;;;4172650;28;20534;-78
2022/12/21 10:31:48;;;;;;;7.13;4.50;;;8.40;99.90;;;;;;4151061;28;21034;-78
2022/12/21 10:33:53;;;;;;;7.07;4.40;;;8.40;99.90;;;;;;4175612;28;20253;-78
2022/12/21 10:35:59;;;;;;;8.80;4.93;;;8.40;99.90;;;;;;4172024;28;20453;-78
2022/12/21 10:38:02;;;;;;;9.00;5.23;;;8.50;99.90;;;;;;4152294;28;20223;-78
2022/12/21 10:40:07;;;;;;;9.27;5.23;;;8.50;99.90;;;;;;4173264;28;20965;-78
2022/12/21 10:42:16;;;;;;;7.47;4.47;;;8.50;99.90;;;;;;4173610;28;20492;-78
2022/12/21 10:44:18;;;;;;;8.10;4.63;;;8.50;99.90;;;;;;4172514;28;20246;-78
2022/12/21 10:46:21;;;;;;;10.57;4.10;;;8.60;99.90;;;;;;4172684;28;20293;-78
2022/12/21 10:48:23;;;;;;;5.97;3.63;;;8.60;99.90;;;;;;4172640;28;20452;-78
2022/12/21 10:50:29;;;;;;;9.60;4.17;;;8.60;99.90;;;;;;4176044;28;20498;-77
2022/12/21 10:52:36;;;;;;;8.03;3.80;;;8.60;99.90;;;;;;4155911;28;21192;-78
2022/12/21 10:54:49;;;;;;;5.90;3.60;;;8.70;99.90;;;;;;4172686;28;20238;-78
2022/12/21 10:56:53;;;;;;;6.33;3.77;;;8.70;99.90;;;;;;4177593;28;20812;-78
2022/12/21 10:58:55;;;;;;;5.77;3.57;;;8.70;99.90;;;;;;4168397;28;21670;-78